createdAt,value
2023-04-01T00:02:06.987Z,13.13
2023-04-01T00:07:11.753Z,11.02
2023-04-01T00:12:15.547Z,11.27
2023-04-01T00:17:21.255Z,13.13
2023-04-01T00:22:25.768Z,10.48
2023-04-01T00:27:29.557Z,12.25
2023-04-01T00:32:36.304Z,13.05
2023-04-01T00:37:41.380Z,11.32
2023-04-01T00:42:45.213Z,18.70
2023-04-01T00:47:50.592Z,14.70
2023-04-01T00:52:55.440Z,11.80
2023-04-01T00:58:00.916Z,13.45
2023-04-01T01:03:06.175Z,10.77
2023-04-01T01:08:20.010Z,4.30
2023-04-01T01:13:33.152Z,3.47
2023-04-01T01:18:46.162Z,5.75
2023-04-01T01:24:27.099Z,2.60
2023-04-01T01:30:11.444Z,3.35
2023-04-01T01:35:24.747Z,4.45
2023-04-01T01:40:31.090Z,5.68
2023-04-01T01:45:39.662Z,5.05
2023-04-01T01:50:47.560Z,7.55
2023-04-01T01:55:53.046Z,4.40
2023-04-01T02:01:00.929Z,10.02
2023-04-01T02:06:09.604Z,7.27
2023-04-01T02:11:16.008Z,6.43
2023-04-01T02:16:25.215Z,7.30
2023-04-01T02:21:34.473Z,12.57
2023-04-01T02:26:38.489Z,8.27
2023-04-01T02:31:43.861Z,10.80
2023-04-01T02:36:50.093Z,9.57
2023-04-01T02:41:54.578Z,9.38
2023-04-01T02:46:58.453Z,7.22
2023-04-01T02:52:03.542Z,8.20
2023-04-01T02:57:07.329Z,8.00
2023-04-01T03:02:11.231Z,9.23
2023-04-01T03:07:16.334Z,4.70
2023-04-01T03:12:20.287Z,6.62
2023-04-01T03:17:24.377Z,8.07
2023-04-01T03:22:29.732Z,8.57
2023-04-01T03:27:33.795Z,7.62
2023-04-01T03:32:37.832Z,7.85
2023-04-01T03:37:44.060Z,7.20
2023-04-01T03:42:47.906Z,9.20
2023-04-01T03:47:52.252Z,12.55
2023-04-01T03:52:57.543Z,14.90
2023-04-01T03:58:03.164Z,14.55
2023-04-01T04:03:08.405Z,14.80
2023-04-01T04:08:13.818Z,13.38
2023-04-01T04:13:17.782Z,11.52
2023-04-01T04:18:22.524Z,12.32
2023-04-01T04:23:28.048Z,9.07
2023-04-01T04:28:32.451Z,11.00
2023-04-01T04:33:37.354Z,9.63
2023-04-01T04:38:42.897Z,10.80
2023-04-01T04:43:52.862Z,14.73
2023-04-01T04:48:56.619Z,7.72
2023-04-01T04:54:01.787Z,8.07
2023-04-01T04:59:07.429Z,5.03
2023-04-01T05:04:13.702Z,4.85
2023-04-01T05:09:19.084Z,6.15
2023-04-01T05:14:23.023Z,7.82
2023-04-01T05:19:28.181Z,6.45
2023-04-01T05:24:33.758Z,9.73
2023-04-01T05:29:37.553Z,9.93
2023-04-01T05:34:41.632Z,17.15
2023-04-01T05:39:46.935Z,16.23
2023-04-01T05:44:50.721Z,13.88
2023-04-01T05:50:07.969Z,16.70
2023-04-01T05:55:13.102Z,17.23
2023-04-01T06:00:18.324Z,16.23
2023-04-01T06:05:24.659Z,17.45
2023-04-01T06:10:45.626Z,25.40
2023-04-01T06:15:57.545Z,28.42
2023-04-01T06:21:09.654Z,29.37
2023-04-01T06:26:37.812Z,25.52
2023-04-01T06:31:57.151Z,27.52
2023-04-01T06:37:46.964Z,30.60
2023-04-01T06:43:03.692Z,36.42
2023-04-01T06:48:34.686Z,35.25
2023-04-01T06:53:54.362Z,37.55
2023-04-01T06:59:04.705Z,43.20
2023-04-01T07:04:15.501Z,44.22
2023-04-01T07:09:22.852Z,39.17
2023-04-01T07:14:38.362Z,37.80
2023-04-01T07:19:47.204Z,44.28
2023-04-01T07:24:53.569Z,37.67
2023-04-01T07:30:01.246Z,32.47
2023-04-01T07:35:23.589Z,33.20
2023-04-01T07:40:37.404Z,26.60
2023-04-01T07:45:52.899Z,33.45
2023-04-01T07:51:05.010Z,33.42
2023-04-01T07:56:12.938Z,32.10
2023-04-01T08:01:29.121Z,27.20
2023-04-01T08:06:42.127Z,24.60
2023-04-01T08:12:00.010Z,22.37
2023-04-01T08:17:22.735Z,26.10
2023-04-01T08:22:31.152Z,26.15
2023-04-01T08:27:39.748Z,24.35
2023-04-01T08:32:49.755Z,28.75
2023-04-01T08:37:56.216Z,24.40
2023-04-01T08:43:11.193Z,28.30
2023-04-01T08:48:47.664Z,24.55
2023-04-01T08:54:09.973Z,20.62
2023-04-01T08:59:43.583Z,26.00
2023-04-01T09:05:20.615Z,22.15
2023-04-01T09:10:55.817Z,14.05
2023-04-01T09:16:15.423Z,15.98
2023-04-01T09:21:39.545Z,14.80
2023-04-01T09:26:59.897Z,16.10
2023-04-01T09:32:26.586Z,16.05
2023-04-01T09:37:52.868Z,13.73
2023-04-01T09:43:24.968Z,16.45
2023-04-01T09:48:46.446Z,15.55
2023-04-01T09:54:03.845Z,16.50
2023-04-01T09:59:39.732Z,13.45
2023-04-01T10:05:15.558Z,14.43
2023-04-01T10:10:57.631Z,17.98
2023-04-01T10:16:19.744Z,19.67
2023-04-01T10:21:56.182Z,17.05
2023-04-01T10:27:18.801Z,18.15
2023-04-01T10:33:16.602Z,22.98
2023-04-01T10:39:03.933Z,20.73
2023-04-01T10:44:47.605Z,21.23
2023-04-01T10:50:17.762Z,17.85
2023-04-01T10:55:58.139Z,16.17
2023-04-01T11:01:29.686Z,17.35
2023-04-01T11:07:38.390Z,18.23
2023-04-01T11:13:08.028Z,16.20
2023-04-01T11:18:57.911Z,18.35
2023-04-01T11:24:29.119Z,20.60
2023-04-01T11:29:59.141Z,15.95
2023-04-01T11:35:26.798Z,16.12
2023-04-01T11:40:37.714Z,14.57
2023-04-01T11:45:52.173Z,15.25
2023-04-01T11:51:12.929Z,13.13
2023-04-01T11:56:30.848Z,15.10
2023-04-01T12:01:52.108Z,13.60
2023-04-01T12:07:06.238Z,14.05
2023-04-01T12:12:20.522Z,14.20
2023-04-01T12:17:36.524Z,16.02
2023-04-01T12:22:51.790Z,20.42
2023-04-01T12:28:07.248Z,18.37
2023-04-01T12:33:42.465Z,13.95
2023-04-01T12:39:08.230Z,14.32
2023-04-01T12:44:45.649Z,14.18
2023-04-01T12:50:09.208Z,13.10
2023-04-01T12:55:39.910Z,16.95
2023-04-01T13:01:06.616Z,13.77
2023-04-01T13:06:24.758Z,11.32
2023-04-01T13:11:39.812Z,12.10
2023-04-01T13:16:47.914Z,11.95
2023-04-01T13:21:59.056Z,11.00
2023-04-01T13:27:11.483Z,12.63
2023-04-01T13:32:33.309Z,13.18
2023-04-01T13:38:15.163Z,13.25
2023-04-01T13:43:25.006Z,12.07
2023-04-01T13:48:56.103Z,11.25
2023-04-01T13:54:33.724Z,10.82
2023-04-01T13:59:59.594Z,17.35
2023-04-01T14:05:39.896Z,17.17
2023-04-01T14:10:53.952Z,12.05
2023-04-01T14:16:13.155Z,14.55
2023-04-01T14:21:29.213Z,13.35
2023-04-01T14:27:02.119Z,21.08
2023-04-01T14:32:17.095Z,14.90
2023-04-01T14:38:05.186Z,17.60
2023-04-01T14:48:35.280Z,20.02
2023-04-01T14:53:46.726Z,17.40
2023-04-01T14:58:59.435Z,15.95
2023-04-01T15:04:24.737Z,17.87
2023-04-01T15:09:37.878Z,15.75
2023-04-01T15:14:56.687Z,15.73
2023-04-01T15:20:22.631Z,13.77
2023-04-01T15:25:45.332Z,12.17
2023-04-01T15:30:59.885Z,12.95
2023-04-01T15:36:17.757Z,14.27
2023-04-01T15:41:27.069Z,13.07
2023-04-01T15:46:46.701Z,19.77
2023-04-01T15:52:12.380Z,18.35
2023-04-01T15:57:29.412Z,15.48
2023-04-01T16:02:37.275Z,19.87
2023-04-01T16:08:00.733Z,18.73
2023-04-01T16:13:20.342Z,21.17
2023-04-01T16:18:42.860Z,20.00
2023-04-01T16:23:52.657Z,21.20
2023-04-01T16:29:05.500Z,21.37
2023-04-01T16:34:18.180Z,18.40
2023-04-01T16:39:42.002Z,20.70
2023-04-01T16:44:56.303Z,21.25
2023-04-01T16:50:12.357Z,17.87
2023-04-01T16:55:20.022Z,16.17
2023-04-01T17:00:29.023Z,17.73
2023-04-01T17:05:45.743Z,14.30
2023-04-01T17:10:54.983Z,16.05
2023-04-01T17:16:12.195Z,11.50
2023-04-01T17:21:20.834Z,11.33
2023-04-01T17:26:37.210Z,12.98
2023-04-01T17:32:00.022Z,12.43
2023-04-01T17:37:18.518Z,10.00
2023-04-01T17:42:35.176Z,9.00
2023-04-01T17:47:50.093Z,12.95
2023-04-01T17:53:18.066Z,7.90
2023-04-01T17:58:30.591Z,6.75
2023-04-01T18:04:02.225Z,7.10
2023-04-01T18:09:17.964Z,6.78
2023-04-01T18:14:48.036Z,7.05
2023-04-01T18:20:09.466Z,6.68
2023-04-01T18:25:25.493Z,6.72
2023-04-01T18:30:33.788Z,6.95
2023-04-01T18:35:51.097Z,6.90
2023-04-01T18:41:09.196Z,6.15
2023-04-01T18:46:24.464Z,5.80
2023-04-01T18:51:39.576Z,4.97
2023-04-01T18:56:46.173Z,9.20
2023-04-01T19:02:02.998Z,5.70
2023-04-01T19:07:41.329Z,10.27
2023-04-01T19:12:54.913Z,8.93
2023-04-01T19:18:20.069Z,10.05
2023-04-01T19:24:02.877Z,9.40
2023-04-01T19:29:14.643Z,10.57
2023-04-01T19:34:29.174Z,11.23
2023-04-01T19:39:47.204Z,12.25
2023-04-01T19:45:04.830Z,11.30
2023-04-01T19:50:24.639Z,11.80
2023-04-01T19:55:39.102Z,11.70
2023-04-01T20:00:46.342Z,10.48
2023-04-01T20:06:03.408Z,9.50
2023-04-01T20:11:20.876Z,9.68
2023-04-01T20:16:39.253Z,10.40
2023-04-01T20:21:48.306Z,10.57
2023-04-01T20:26:55.592Z,10.05
2023-04-01T20:32:12.751Z,10.52
2023-04-01T20:37:34.387Z,11.13
2023-04-01T20:42:56.837Z,11.68
2023-04-01T20:48:22.999Z,15.90
2023-04-01T20:53:33.234Z,12.00
2023-04-01T20:58:49.280Z,12.70
2023-04-01T21:04:02.326Z,11.45
2023-04-01T21:09:20.665Z,11.05
2023-04-01T21:14:59.318Z,10.52
2023-04-01T21:20:22.893Z,9.38
2023-04-01T21:25:43.214Z,9.05
2023-04-01T21:31:13.061Z,7.82
2023-04-01T21:36:29.764Z,7.82
2023-04-01T21:41:57.880Z,9.30
2023-04-01T21:47:33.003Z,8.52
2023-04-01T21:52:56.482Z,8.85
2023-04-01T21:58:33.372Z,8.20
2023-04-01T22:04:05.841Z,10.15
2023-04-01T22:09:14.757Z,10.80
2023-04-01T22:14:28.131Z,11.30
2023-04-01T22:19:41.698Z,10.60
2023-04-01T22:24:54.744Z,12.57
2023-04-01T22:30:11.912Z,13.20
2023-04-01T22:35:33.027Z,13.70
2023-04-01T22:40:44.159Z,14.05
2023-04-01T22:46:04.111Z,14.27
2023-04-01T22:51:20.028Z,16.25
2023-04-01T22:56:29.562Z,22.25
2023-04-01T23:01:40.690Z,15.77
2023-04-01T23:06:50.589Z,15.57
2023-04-01T23:11:57.541Z,16.23
2023-04-01T23:17:11.789Z,14.57
2023-04-01T23:22:25.960Z,14.07
2023-04-01T23:27:36.022Z,12.82
2023-04-01T23:32:39.821Z,12.27
2023-04-01T23:37:44.920Z,15.82
2023-04-01T23:42:48.726Z,12.82
2023-04-01T23:47:54.128Z,13.15
2023-04-01T23:53:05.012Z,13.45
2023-04-01T23:58:23.922Z,15.13
